Time;durP1;ratioP1;P1;durP2;ratioP2;P2;SDS_P1;SDS_P2;PMS_P1;PMS_P2;Temp;Humidity;BMP_temperature;BMP_pressure;BME280_temperature;BME280_humidity;BME280_pressure;Samples;Min_cycle;Max_cycle;Signal;HPM_P1;HPM_P2
2024/03/21 00:02:16;;;;;;;;;69.67;53.67;;;;;-143.90;100.00;76652.75;4927806;28;101943;-73
2024/03/21 00:04:41;;;;;;;;;72.33;52.33;;;;;-143.90;100.00;76654.81;4931357;28;101979;-73
2024/03/21 00:07:07;;;;;;;;;68.00;49.67;;;;;-143.90;100.00;76656.88;4924081;28;104172;-72
2024/03/21 00:09:33;;;;;;;;;56.33;44.00;;;;;-143.90;100.00;76669.28;4925653;28;101502;-73
2024/03/21 00:11:59;;;;;;;;;60.00;46.00;;;;;-143.90;100.00;76669.28;4913510;28;101404;-73
2024/03/21 00:14:25;;;;;;;;;66.00;48.00;;;;;-143.90;100.00;76677.56;4924640;28;101793;-74
2024/03/21 00:16:51;;;;;;;;;75.00;55.33;;;;;-143.90;100.00;76692.03;4921866;28;104284;-74
2024/03/21 00:19:18;;;;;;;;;61.00;46.67;;;;;-143.90;100.00;76694.13;4928855;28;101865;-73
2024/03/21 00:21:47;;;;;;;;;59.67;47.00;;;;;-143.90;100.00;76694.13;4930379;28;101634;-73
2024/03/21 00:24:13;;;;;;;;;58.33;41.67;;;;;-143.90;100.00;76687.91;4936858;28;101841;-72
2024/03/21 00:26:39;;;;;;;;;40.67;35.00;;;;;-143.90;100.00;76681.72;4919958;28;104299;-72
2024/03/21 00:29:05;;;;;;;;;39.33;35.00;;;;;-143.90;100.00;76679.63;4922235;28;101634;-74
2024/03/21 00:31:36;;;;;;;;;33.67;30.00;;;;;-143.90;100.00;76692.03;4921514;28;101536;-73
2024/03/21 00:34:02;;;;;;;;;32.67;24.00;;;;;-143.90;100.00;76692.03;4915385;28;101835;-72
2024/03/21 00:36:29;;;;;;;;;26.33;23.33;;;;;-143.90;100.00;76694.13;4917320;28;103978;-73
2024/03/21 00:38:55;;;;;;;;;33.67;29.33;;;;;-143.90;100.00;76698.25;4914677;28;107925;-73
2024/03/21 00:41:21;;;;;;;;;71.00;52.00;;;;;-143.90;100.00;76712.72;4924567;28;101966;-74
2024/03/21 00:43:47;;;;;;;;;81.75;60.00;;;;;-143.90;100.00;76727.22;4919488;28;106474;-73
2024/03/21 00:46:13;;;;;;;;;84.25;64.00;;;;;-143.90;100.00;76735.47;4920367;28;104020;-73
2024/03/21 00:48:39;;;;;;;;;86.25;63.50;;;;;-143.90;100.00;76741.69;4923399;28;102215;-73
2024/03/21 00:51:05;;;;;;;;;89.00;64.75;;;;;-143.90;100.00;76743.75;4921212;28;102285;-73
2024/03/21 00:53:31;;;;;;;;;83.75;62.00;;;;;-143.90;100.00;76745.81;4906858;28;101938;-73
2024/03/21 00:55:57;;;;;;;;;86.25;62.25;;;;;-143.90;100.00;76743.75;4917617;28;103857;-72
2024/03/21 00:58:24;;;;;;;;;83.00;61.25;;;;;-143.90;100.00;76743.75;4923057;28;102941;-73
2024/03/21 01:00:50;;;;;;;;;79.50;56.75;;;;;-143.90;100.00;76739.63;4924212;28;101795;-73
2024/03/21 01:03:15;;;;;;;;;73.00;55.67;;;;;-143.90;100.00;76735.47;4917789;28;101700;-72
2024/03/21 01:05:43;;;;;;;;;77.50;60.50;;;;;-143.90;100.00;76731.34;4917570;28;104059;-73
2024/03/21 01:08:09;;;;;;;;;78.00;54.50;;;;;-143.90;100.00;76735.47;4918506;28;101623;-73
2024/03/21 01:10:35;;;;;;;;;80.50;60.75;;;;;-143.90;100.00;76747.88;4929411;28;101584;-73
2024/03/21 01:13:00;;;;;;;;;86.75;63.50;;;;;-143.90;100.00;76752.03;4905259;28;101589;-73
2024/03/21 01:15:26;;;;;;;;;73.75;55.25;;;;;-143.90;100.00;76743.75;4920489;28;104078;-72
2024/03/21 01:17:52;;;;;;;;;73.33;54.67;;;;;-143.90;100.00;76745.81;4902891;28;101489;-73
2024/03/21 01:20:18;;;;;;;;;62.00;46.33;;;;;-143.90;100.00;76739.63;4921904;28;101584;-73
2024/03/21 01:22:43;;;;;;;;;57.67;45.33;;;;;-143.90;100.00;76743.75;4917413;28;102084;-73
2024/03/21 01:25:10;;;;;;;;;48.33;39.67;;;;;-143.90;100.00;76739.63;4917198;28;104042;-73
2024/03/21 01:27:35;;;;;;;;;41.33;31.00;;;;;-143.90;100.00;76737.53;4919941;28;101890;-74
2024/03/21 01:30:02;;;;;;;;;43.67;39.00;;;;;-143.90;100.00;76725.13;4915067;28;101612;-73
2024/03/21 01:32:28;;;;;;;;;51.67;40.00;;;;;-143.90;100.00;76735.47;4925678;28;101633;-72
2024/03/21 01:34:54;;;;;;;;;41.67;33.33;;;;;-143.90;100.00;76735.47;4912792;28;104023;-73
2024/03/21 01:37:19;;;;;;;;;49.67;40.00;;;;;-143.90;100.00;76737.53;4908059;28;102121;-73
2024/03/21 01:39:45;;;;;;;;;75.50;51.50;;;;;-143.90;100.00;76747.88;4924743;28;101717;-73
2024/03/21 01:42:17;;;;;;;;;91.00;67.75;;;;;-143.90;100.00;76760.28;4913331;28;101963;-74
2024/03/21 01:44:58;;;;;;;;;81.00;62.00;;;;;-143.90;100.00;76764.44;4925277;28;103187;-74
2024/03/21 01:47:24;;;;;;;;;83.00;62.75;;;;;-143.90;100.00;76772.72;4919264;28;101732;-74
2024/03/21 01:49:50;;;;;;;;;90.50;66.50;;;;;-143.90;100.00;76770.63;4920772;28;102163;-74
2024/03/21 01:52:16;;;;;;;;;96.00;71.25;;;;;-143.90;100.00;76785.13;4918548;28;105630;-73
2024/03/21 01:54:42;;;;;;;;;103.25;81.75;;;;;-143.90;100.00;76799.59;4925251;28;104248;-73
2024/03/21 01:57:09;;;;;;;;;106.25;85.25;;;;;-143.90;100.00;76799.59;4924741;28;101874;-73
2024/03/21 01:59:35;;;;;;;;;104.25;73.00;;;;;-143.90;100.00;76807.88;4924063;28;101552;-74
2024/03/21 02:02:00;;;;;;;;;95.00;71.50;;;;;-143.90;100.00;76797.53;4909786;28;101853;-73
2024/03/21 02:04:26;;;;;;;;;92.50;66.50;;;;;-143.90;100.00;76803.72;4924493;28;104070;-73
2024/03/21 02:06:52;;;;;;;;;96.50;69.00;;;;;-143.90;100.00;76805.78;4922990;28;102171;-73
2024/03/21 02:09:21;;;;;;;;;92.50;69.25;;;;;-143.90;100.00;76824.41;4912902;28;102291;-73
2024/03/21 02:11:47;;;;;;;;;90.00;69.25;;;;;-143.90;100.00;76830.63;4931111;28;101972;-73
2024/03/21 02:14:14;;;;;;;;;92.75;67.00;;;;;-143.90;100.00;76834.75;4894809;28;104011;-72
2024/03/21 02:16:40;;;;;;;;;84.00;65.75;;;;;-143.90;100.00;76838.88;4934868;28;102229;-73
2024/03/21 02:19:06;;;;;;;;;96.50;66.50;;;;;-143.90;100.00;76838.88;4922710;28;101897;-73
2024/03/21 02:24:16;;;;;;;;;78.00;54.75;;;;;-143.90;100.00;76838.88;4910734;28;108644;-74
2024/03/21 02:26:41;;;;;;;;;73.00;55.00;;;;;-143.90;100.00;76834.75;4920184;28;101866;-73
2024/03/21 02:29:07;;;;;;;;;65.33;48.00;;;;;-143.90;100.00;76845.09;4924247;28;101956;-73
2024/03/21 02:31:33;;;;;;;;;67.33;52.33;;;;;-143.90;100.00;76838.88;4928571;28;102253;-73
2024/03/21 02:33:58;;;;;;;;;69.33;52.00;;;;;-143.90;100.00;76843.03;4912647;28;102387;-74
2024/03/21 02:36:24;;;;;;;;;64.33;48.00;;;;;-143.90;100.00;76845.09;4921174;28;101703;-74
2024/03/21 02:38:50;;;;;;;;;57.00;44.00;;;;;-143.90;100.00;76849.22;4926925;28;101782;-74
2024/03/21 02:41:16;;;;;;;;;51.00;42.67;;;;;-143.90;100.00;76847.16;4929916;28;103903;-74
2024/03/21 02:43:41;;;;;;;;;63.67;49.67;;;;;-143.90;100.00;76855.44;4924761;28;104064;-74
2024/03/21 02:46:07;;;;;;;;;75.25;54.75;;;;;-143.90;100.00;76859.56;4925280;28;103857;-74
2024/03/21 02:48:34;;;;;;;;;66.75;52.25;;;;;-143.90;100.00;76863.72;4931182;28;102185;-74
2024/03/21 02:50:59;;;;;;;;;75.75;58.00;;;;;-143.90;100.00;76874.06;4927441;28;101873;-72
2024/03/21 02:53:25;;;;;;;;;75.25;58.00;;;;;-143.90;100.00;76882.31;4928661;28;102358;-73
2024/03/21 02:55:51;;;;;;;;;95.75;69.50;;;;;-143.90;100.00;76884.38;4930643;28;101603;-73
2024/03/21 02:58:16;;;;;;;;;91.75;66.25;;;;;-143.90;100.00;76886.47;4922219;28;101706;-73
2024/03/21 03:00:42;;;;;;;;;77.50;60.75;;;;;-143.90;100.00;76880.25;4927217;28;101919;-73
2024/03/21 03:03:08;;;;;;;;;71.75;53.75;;;;;-143.90;100.00;76871.97;4928191;28;103964;-73
2024/03/21 03:05:40;;;;;;;;;71.50;56.75;;;;;-143.90;100.00;76880.25;4912667;28;101459;-73
2024/03/21 03:08:06;;;;;;;;;84.75;58.75;;;;;-143.90;100.00;76871.97;4930701;28;101752;-73
2024/03/21 03:10:32;;;;;;;;;84.00;60.25;;;;;-143.90;100.00;76876.13;4934999;28;102021;-73
2024/03/21 03:12:57;;;;;;;;;71.50;55.75;;;;;-143.90;100.00;76874.06;4925683;28;103841;-73
2024/03/21 03:15:23;;;;;;;;;69.25;48.25;;;;;-143.90;100.00;76869.91;4929763;28;101889;-73
2024/03/21 03:17:49;;;;;;;;;78.50;60.75;;;;;-143.90;100.00;76882.31;4923299;28;101717;-73
2024/03/21 03:20:14;;;;;;;;;82.50;58.50;;;;;-143.90;100.00;76890.59;4939110;28;102034;-74
2024/03/21 03:22:40;;;;;;;;;70.00;53.25;;;;;-143.90;100.00;76880.25;4923593;28;103684;-73
2024/03/21 03:25:06;;;;;;;;;77.00;59.50;;;;;-143.90;100.00;76886.47;4930628;28;104184;-73
2024/03/21 03:27:32;;;;;;;;;73.75;54.00;;;;;-143.90;100.00;76894.72;4924095;28;103259;-72
2024/03/21 03:29:57;;;;;;;;;62.00;47.00;;;;;-143.90;100.00;76888.53;4921545;28;102056;-73
2024/03/21 03:32:23;;;;;;;;;56.00;42.00;;;;;-143.90;100.00;76880.25;4933976;28;104116;-73
2024/03/21 03:37:33;;;;;;;;;76.00;57.50;;;;;-143.90;100.00;76888.53;4940841;28;101899;-72
2024/03/21 03:39:58;;;;;;;;;94.00;70.50;;;;;-143.90;100.00;76913.34;4917491;28;101731;-72
2024/03/21 03:42:24;;;;;;;;;104.25;73.75;;;;;-143.90;100.00;76917.47;4909203;28;104050;-73
2024/03/21 03:44:49;;;;;;;;;96.00;66.75;;;;;-143.90;100.00;76919.56;4902498;28;101988;-73
2024/03/21 03:47:15;;;;;;;;;93.00;66.50;;;;;-143.90;100.00;76929.91;4925365;28;102734;-73
2024/03/21 03:49:41;;;;;;;;;84.25;64.00;;;;;-143.90;100.00;76915.41;4923715;28;102184;-72
2024/03/21 03:52:06;;;;;;;;;78.75;55.75;;;;;-143.90;100.00;76923.69;4917317;28;103896;-72
2024/03/21 03:54:32;;;;;;;;;64.50;45.00;;;;;-143.90;100.00;76917.47;4929506;28;101465;-74
2024/03/21 03:56:58;;;;;;;;;69.25;53.25;;;;;-143.90;100.00;76923.69;4905092;28;101681;-73
2024/03/21 03:59:23;;;;;;;;;57.33;42.00;;;;;-143.90;100.00;76925.75;4920047;28;101601;-73
2024/03/21 04:01:49;;;;;;;;;49.00;39.67;;;;;-143.90;100.00;76913.34;4924737;28;103936;-72
2024/03/21 04:04:15;;;;;;;;;40.67;32.00;;;;;-143.90;100.00;76915.41;4920931;28;101863;-73
2024/03/21 04:06:41;;;;;;;;;51.67;39.33;;;;;-143.90;100.00;76915.41;4920509;28;102686;-73
2024/03/21 04:09:07;;;;;;;;;40.00;31.00;;;;;-143.90;100.00;76923.69;4907342;28;101696;-73
2024/03/21 04:11:32;;;;;;;;;35.33;29.33;;;;;-143.90;100.00;76923.69;4909671;28;104051;-73
2024/03/21 04:13:58;;;;;;;;;36.00;31.33;;;;;-143.90;100.00;76921.63;4898737;28;101690;-73
2024/03/21 04:16:24;;;;;;;;;32.00;28.33;;;;;-143.90;100.00;76919.56;4923606;28;101933;-73
2024/03/21 04:18:50;;;;;;;;;23.00;19.00;;;;;-143.90;100.00;76934.03;4928521;28;102126;-73
2024/03/21 04:21:16;;;;;;;;;62.67;46.67;;;;;-143.90;100.00;76936.09;4926164;28;102199;-74
2024/03/21 04:23:41;;;;;;;;;70.00;49.50;;;;;-143.90;100.00;76950.56;4924153;28;101788;-73
2024/03/21 04:26:07;;;;;;;;;67.75;52.25;;;;;-143.90;100.00;76948.50;4914223;28;101683;-74
2024/03/21 04:28:32;;;;;;;;;52.25;46.75;;;;;-143.90;100.00;76946.44;4937219;28;101952;-74
2024/03/21 04:30:58;;;;;;;;;69.50;52.25;;;;;-143.90;100.00;76950.56;4914616;28;103896;-73
2024/03/21 04:33:24;;;;;;;;;89.50;63.75;;;;;-143.90;100.00;76973.31;4924409;28;101742;-73
2024/03/21 04:35:49;;;;;;;;;86.25;66.75;;;;;-143.90;100.00;76977.47;4938587;28;101711;-73
2024/03/21 04:38:15;;;;;;;;;56.25;43.00;;;;;-143.90;100.00;76971.25;4922181;28;101712;-73
2024/03/21 04:40:41;;;;;;;;;55.67;44.00;;;;;-143.90;100.00;76973.31;4920318;28;103444;-73
2024/03/21 04:43:07;;;;;;;;;62.67;50.67;;;;;-143.90;100.00;76975.41;4939929;28;103472;-73
2024/03/21 04:45:32;;;;;;;;;81.00;59.75;;;;;-143.90;100.00;76987.81;4909440;28;102018;-73
2024/03/21 04:47:58;;;;;;;;;73.50;56.75;;;;;-143.90;100.00;76996.09;4903484;28;101951;-73
2024/03/21 04:50:24;;;;;;;;;84.50;63.25;;;;;-143.90;100.00;77006.41;4914726;28;102542;-73
2024/03/21 04:52:49;;;;;;;;;82.25;60.50;;;;;-143.90;100.00;77016.75;4901038;28;101962;-73
2024/03/21 04:55:15;;;;;;;;;77.25;57.75;;;;;-143.90;100.00;76996.09;4927101;28;101587;-73
2024/03/21 04:57:41;;;;;;;;;67.75;52.75;;;;;-143.90;100.00;76996.09;4918867;28;101731;-73
2024/03/21 05:00:11;;;;;;;;;88.00;65.00;;;;;-143.90;100.00;77008.50;4909388;28;103936;-73
2024/03/21 05:02:38;;;;;;;;;100.75;76.50;;;;;-143.90;100.00;77010.56;4921861;28;107009;-73
2024/03/21 05:05:04;;;;;;;;;104.75;81.75;;;;;-143.90;100.00;77004.34;4920637;28;102086;-73
2024/03/21 05:07:30;;;;;;;;;93.75;71.75;;;;;-143.90;100.00;76996.09;4927690;28;101985;-73
2024/03/21 05:09:57;;;;;;;;;93.75;63.25;;;;;-143.90;100.00;76998.16;4916621;28;102633;-74
2024/03/21 05:12:22;;;;;;;;;100.25;75.00;;;;;-143.90;100.00;76991.94;4916834;28;101842;-73
2024/03/21 05:14:48;;;;;;;;;97.50;69.50;;;;;-143.90;100.00;76991.94;4916684;28;101732;-73
2024/03/21 05:17:16;;;;;;;;;85.00;62.75;;;;;-143.90;100.00;76996.09;4922178;28;101779;-72
2024/03/21 05:19:42;;;;;;;;;85.00;64.75;;;;;-143.90;100.00;76998.16;4925236;28;103181;-72
2024/03/21 05:22:08;;;;;;;;;86.25;63.50;;;;;-143.90;100.00;76996.09;4913819;28;101981;-73
2024/03/21 05:24:34;;;;;;;;;79.25;56.50;;;;;-143.90;100.00;76987.81;4936812;28;102750;-72
2024/03/21 05:27:03;;;;;;;;;64.00;49.25;;;;;-143.90;100.00;76975.41;4919373;28;102284;-73
2024/03/21 05:29:32;;;;;;;;;60.50;45.75;;;;;-143.90;100.00;76963.00;4901210;28;104046;-73
2024/03/21 05:31:58;;;;;;;;;58.33;47.33;;;;;-143.90;100.00;76952.66;4895600;28;101871;-71
2024/03/21 05:34:24;;;;;;;;;49.33;41.00;;;;;-143.90;100.00;76942.31;4904623;28;102090;-73
2024/03/21 05:36:50;;;;;;;;;35.33;30.33;;;;;-143.90;100.00;76940.25;4925065;28;101831;-74
2024/03/21 05:39:16;;;;;;;;;54.00;44.00;;;;;-143.90;100.00;76942.31;4914752;28;102225;-73
2024/03/21 05:41:42;;;;;;;;;59.33;41.33;;;;;-143.90;100.00;76948.50;4921881;28;101730;-74
2024/03/21 05:44:07;;;;;;;;;58.33;44.00;;;;;-143.90;100.00;76936.09;4912720;28;103443;-73
2024/03/21 05:46:34;;;;;;;;;27.00;22.00;;;;;-143.90;100.00;76913.34;4915622;28;102531;-73
2024/03/21 05:48:59;;;;;;;;;34.00;32.00;;;;;-143.90;100.00;76894.72;4920939;28;103967;-73
2024/03/21 05:51:25;;;;;;;;;35.33;33.33;;;;;-143.90;100.00;76867.84;4915317;28;101821;-73
2024/03/21 05:53:51;;;;;;;;;43.00;33.33;;;;;-143.90;100.00;76851.31;4927606;28;101883;-72
2024/03/21 05:56:17;;;;;;;;;43.33;31.00;;;;;-143.90;100.00;76820.28;4909282;28;103420;-73
2024/03/21 05:58:46;;;;;;;;;34.00;29.00;;;;;-143.90;100.00;76805.78;4924532;28;103155;-72
2024/03/21 06:03:44;;;;;;;;;61.33;43.67;;;;;-143.90;100.00;76776.84;4942450;28;101887;-72
2024/03/21 06:06:10;;;;;;;;;54.33;41.00;;;;;-143.90;100.00;76754.09;4916171;28;101587;-72
2024/03/21 06:08:36;;;;;;;;;50.00;38.00;;;;;-143.90;100.00;76731.34;4907021;28;102442;-73
2024/03/21 06:11:03;;;;;;;;;40.67;34.33;;;;;-143.90;100.00;76706.53;4922754;28;101898;-73
2024/03/21 06:13:29;;;;;;;;;58.00;44.33;;;;;-143.90;100.00;76689.97;4927316;28;102060;-72
2024/03/21 06:15:55;;;;;;;;;61.33;48.33;;;;;-143.90;100.00;76665.16;4920756;28;101864;-73
2024/03/21 06:18:21;;;;;;;;;63.00;45.33;;;;;-143.90;100.00;76642.41;4902942;28;103809;-73
2024/03/21 06:20:47;;;;;;;;;72.00;53.33;;;;;-143.90;100.00;76625.88;4924994;28;103571;-70
2024/03/21 06:23:13;;;;;;;;;68.00;52.67;;;;;-143.90;100.00;76596.91;4930788;28;101676;-73
2024/03/21 06:25:39;;;;;;;;;76.50;59.75;;;;;-143.90;100.00;76576.22;4917203;28;101958;-74
2024/03/21 06:28:05;;;;;;;;;70.67;55.67;;;;;-143.90;100.00;76536.94;4919872;28;102193;-73
2024/03/21 06:30:32;;;;;;;;;70.67;52.00;;;;;-143.90;100.00;76503.84;4928771;28;101579;-73
2024/03/21 06:32:58;;;;;;;;;74.67;55.33;;;;;-143.90;100.00;76462.47;4920470;28;104097;-73
2024/03/21 06:35:23;;;;;;;;;77.33;58.33;;;;;-143.90;100.00;76441.81;4919239;28;101591;-73
2024/03/21 06:37:53;;;;;;;;;81.33;55.67;;;;;-143.90;100.00;76404.56;4896185;28;104047;-73
2024/03/21 06:40:19;;;;;;;;;31.67;18.67;;;;;-143.90;100.00;76367.34;4925671;28;102048;-69
2024/03/21 06:42:45;;;;;;;;;72.67;51.67;;;;;-143.90;100.00;76338.41;4905423;28;101799;-74
2024/03/21 06:45:11;;;;;;;;;60.67;47.33;;;;;-143.90;100.00;76323.94;4906666;28;101722;-73
2024/03/21 06:47:42;;;;;;;;;69.00;54.00;;;;;-143.90;100.00;76292.91;4909406;28;104161;-73
2024/03/21 06:50:17;;;;;;;;;74.33;58.67;;;;;-143.90;100.00;76261.88;4916822;28;102261;-73
2024/03/21 06:52:46;;;;;;;;;71.00;52.00;;;;;-143.90;100.00;76245.34;4941226;28;101827;-73
2024/03/21 06:55:13;;;;;;;;;68.00;53.33;;;;;-143.90;100.00;76247.41;4944627;28;101794;-72
2024/03/21 06:57:42;;;;;;;;;72.00;48.00;;;;;-143.90;100.00;76243.28;4921683;28;108495;-74
2024/03/21 07:00:12;;;;;;;;;79.50;59.25;;;;;-143.90;100.00;76247.41;4902453;28;101859;-72
2024/03/21 07:02:41;;;;;;;;;71.33;55.00;;;;;-143.90;100.00;76216.41;4904270;28;104124;-72
2024/03/21 07:05:08;;;;;;;;;63.00;51.00;;;;;-143.90;100.00;76197.78;4925322;28;101885;-73
2024/03/21 07:07:34;;;;;;;;;59.67;47.00;;;;;-143.90;100.00;76181.25;4922776;28;104127;-73
2024/03/21 07:09:59;;;;;;;;;48.33;40.00;;;;;-143.90;100.00;76164.69;4900635;28;101536;-73
2024/03/21 07:12:25;;;;;;;;;43.50;39.25;;;;;-143.90;100.00;76144.00;4921156;28;101710;-73
2024/03/21 07:14:52;;;;;;;;;49.00;39.00;;;;;-143.90;100.00;76123.34;4926930;28;102038;-72
2024/03/21 07:17:19;;;;;;;;;69.00;53.33;;;;;-143.90;100.00;76090.25;4917449;28;103954;-73
2024/03/21 07:19:45;;;;;;;;;49.75;36.25;;;;;-143.90;100.00;76065.44;4926765;28;101986;-69
2024/03/21 07:22:11;;;;;;;;;50.75;41.00;;;;;-143.90;100.00;76040.63;4918932;28;101811;-73
2024/03/21 07:24:37;;;;;;;;;44.75;38.75;;;;;-143.90;100.00;76030.28;4922745;28;102240;-73
2024/03/21 07:27:02;;;;;;;;;55.00;41.75;;;;;-143.90;100.00;76009.59;4924813;28;103427;-73
2024/03/21 07:29:28;;;;;;;;;8.50;1.00;;;;;-143.90;100.00;75999.25;4924300;28;101700;-73
2024/03/21 07:31:55;;;;;;;;;39.75;33.50;;;;;-143.90;100.00;75988.94;4918541;28;101474;-73
2024/03/21 07:34:22;;;;;;;;;40.25;33.50;;;;;-143.90;100.00;75976.53;4923480;28;101733;-71
2024/03/21 07:36:48;;;;;;;;;34.75;29.75;;;;;-143.90;100.00;75978.59;4939181;28;104063;-72
2024/03/21 07:39:14;;;;;;;;;46.00;35.75;;;;;-143.90;100.00;75970.31;4923657;28;101948;-72
2024/03/21 07:41:39;;;;;;;;;39.75;35.00;;;;;-143.90;100.00;75957.91;4932209;28;102157;-73
2024/03/21 07:44:05;;;;;;;;;44.25;36.75;;;;;-143.90;100.00;75955.84;4915462;28;103024;-72
2024/03/21 07:46:31;;;;;;;;;59.00;47.00;;;;;-143.90;100.00;75922.75;4926386;28;104066;-73
2024/03/21 07:48:57;;;;;;;;;60.00;47.67;;;;;-143.90;100.00;75916.56;4941702;28;101613;-70
2024/03/21 07:51:23;;;;;;;;;71.00;52.00;;;;;-143.90;100.00;75891.75;4918222;28;101834;-73
2024/03/21 07:53:49;;;;;;;;;61.67;44.00;;;;;-143.90;100.00;75871.06;4920995;28;101569;-73
2024/03/21 07:56:15;;;;;;;;;47.25;39.25;;;;;-143.90;75.67;75856.59;4896925;28;104124;-72
2024/03/21 07:58:41;;;;;;;;;55.00;42.00;;;;;-143.90;69.07;75846.25;4925587;28;101826;-73
2024/03/21 08:01:06;;;;;;;;;50.25;39.00;;;;;-143.90;67.27;75833.84;4917070;28;101899;-72
2024/03/21 08:03:32;;;;;;;;;30.00;30.00;;;;;-143.90;66.13;75815.22;4921086;28;102522;-72
2024/03/21 08:05:58;;;;;;;;;44.75;37.50;;;;;-143.90;66.00;75802.81;4919510;28;104049;-73
2024/03/21 08:08:23;;;;;;;;;50.50;35.25;;;;;-143.90;65.18;75802.81;4920118;28;101675;-70
2024/03/21 08:10:49;;;;;;;;;58.25;43.25;;;;;-143.90;65.97;75835.91;4923177;28;103487;-72
2024/03/21 08:13:15;;;;;;;;;51.00;40.25;;;;;-143.90;68.92;75817.31;4927530;28;101929;-72
2024/03/21 08:15:40;;;;;;;;;51.75;38.00;;;;;-143.90;66.07;75811.09;4926075;28;104030;-73
2024/03/21 08:18:06;;;;;;;;;48.50;35.00;;;;;-143.90;65.75;75790.41;4895237;28;102850;-71
2024/03/21 08:20:32;;;;;;;;;56.50;43.50;;;;;-143.90;65.37;75800.75;4940203;28;103330;-73
2024/03/21 08:22:58;;;;;;;;;44.50;38.50;;;;;-143.90;66.29;75790.41;4928978;28;102283;-73
2024/03/21 08:25:24;;;;;;;;;44.00;35.00;;;;;-143.90;65.83;75780.09;4920323;28;103964;-71
2024/03/21 08:27:50;;;;;;;;;43.75;37.75;;;;;-143.90;64.80;75757.34;4912075;28;101949;-72
2024/03/21 08:30:15;;;;;;;;;37.00;32.25;;;;;-143.90;65.88;75751.13;4924594;28;101848;-72
2024/03/21 08:32:41;;;;;;;;;46.25;38.00;;;;;-143.90;64.51;75759.41;4929178;28;101540;-72
2024/03/21 08:35:07;;;;;;;;;52.25;39.00;;;;;-143.90;65.03;75763.53;4924223;28;104110;-72
2024/03/21 08:37:33;;;;;;;;;53.00;42.75;;;;;-143.90;65.08;75738.72;4922080;28;101820;-72
2024/03/21 08:40:00;;;;;;;;;37.25;31.75;;;;;-143.90;65.11;75699.44;4901578;28;102055;-72
2024/03/21 08:42:27;;;;;;;;;31.75;27.50;;;;;-143.90;62.64;75672.56;4921036;28;101710;-72
2024/03/21 08:44:55;;;;;;;;;52.75;40.50;;;;;-143.90;62.47;75705.66;4922682;28;104182;-72
2024/03/21 08:47:22;;;;;;;;;53.00;42.25;;;;;-143.90;63.94;75701.50;4898446;28;102426;-73
2024/03/21 08:49:47;;;;;;;;;56.00;41.00;;;;;-143.90;63.84;75649.81;4902442;28;101804;-72
2024/03/21 08:52:13;;;;;;;;;45.50;38.00;;;;;-143.90;61.04;75637.41;4918838;28;103668;-72
2024/03/21 08:54:39;;;;;;;;;52.25;41.00;;;;;-143.90;61.96;75627.06;4892713;28;106573;-73
2024/03/21 08:57:04;;;;;;;;;42.25;36.00;;;;;-143.90;60.63;75596.06;4923913;28;101799;-72
2024/03/21 08:59:31;;;;;;;;;44.75;37.00;;;;;-143.90;60.04;75602.25;4906121;28;101802;-72
2024/03/21 09:01:57;;;;;;;;;43.50;37.75;;;;;-143.90;60.63;75598.13;4924670;28;103205;-72
2024/03/21 09:04:23;;;;;;;;;53.75;43.75;;;;;-143.90;59.69;75569.19;4923619;28;103944;-73
2024/03/21 09:06:49;;;;;;;;;56.25;42.75;;;;;-143.90;61.09;75569.19;4919367;28;102507;-73
2024/03/21 09:09:16;;;;;;;;;50.25;39.50;;;;;-143.90;59.16;75544.38;4928331;28;102084;-72
2024/03/21 09:11:43;;;;;;;;;70.50;52.00;;;;;-143.90;58.68;75604.34;4928993;28;101632;-72
2024/03/21 09:14:08;;;;;;;;;61.00;46.50;;;;;-143.90;59.21;75567.13;4917046;28;110070;-72
2024/03/21 09:16:34;;;;;;;;;51.75;40.00;;;;;-143.90;60.06;75523.69;4941980;28;101971;-72
2024/03/21 09:19:00;;;;;;;;;52.50;41.25;;;;;-143.90;59.27;75490.63;4905496;28;101590;-73
2024/03/21 09:21:27;;;;;;;;;69.00;51.75;;;;;-143.90;56.92;75469.94;4904624;28;102246;-71
2024/03/21 09:23:53;;;;;;;;;46.00;37.25;;;;;-143.90;56.89;75457.53;4914551;28;102620;-73
2024/03/21 09:26:19;;;;;;;;;37.00;29.00;;;;;-143.90;55.25;75432.72;4915468;28;101664;-71
2024/03/21 09:28:44;;;;;;;;;38.25;32.75;;;;;-143.90;54.00;75420.31;4904707;28;101488;-73
2024/03/21 09:31:10;;;;;;;;;27.00;22.75;;;;;-143.90;54.61;75409.97;4926318;28;102120;-72
2024/03/21 09:33:36;;;;;;;;;32.00;28.25;;;;;-143.90;52.59;75387.22;4930588;28;102477;-72
2024/03/21 09:36:08;;;;;;;;;28.00;25.00;;;;;-143.90;53.08;75387.22;4899379;28;101919;-71
2024/03/21 09:38:34;;;;;;;;;58.00;46.00;;;;;-143.90;54.54;75422.38;4921227;28;103334;-72
2024/03/21 09:41:00;;;;;;;;;59.25;45.00;;;;;-143.90;54.75;75414.13;4921155;28;101815;-72
2024/03/21 09:43:28;;;;;;;;;53.50;39.50;;;;;-143.90;52.63;75362.44;4922214;28;103986;-73
2024/03/21 09:45:54;;;;;;;;;56.00;41.50;;;;;-143.90;51.20;75370.69;4921203;28;102387;-73
2024/03/21 09:48:23;;;;;;;;;56.75;40.00;;;;;-143.90;51.22;75343.81;4919758;28;102005;-73
2024/03/21 09:50:48;;;;;;;;;64.50;48.00;;;;;-143.90;52.36;75416.19;4905985;28;101965;-74
2024/03/21 09:53:16;;;;;;;;;54.00;42.00;;;;;-143.90;51.92;75347.94;4909067;28;104217;-75
2024/03/21 09:55:45;;;;;;;;;65.00;51.75;;;;;-143.90;48.67;75391.38;4917855;28;101655;-73
2024/03/21 09:58:14;;;;;;;;;54.50;42.00;;;;;-143.90;46.88;75358.28;4914615;28;103163;-71
2024/03/21 10:00:41;;;;;;;;;46.50;36.50;;;;;-143.90;47.25;75343.81;4906345;28;101649;-72
2024/03/21 10:03:13;;;;;;;;;36.00;31.50;;;;;-143.90;44.34;75321.06;4925952;28;104106;-73
2024/03/21 10:05:41;;;;;;;;;45.25;36.00;;;;;-143.90;45.36;75283.84;4918906;28;101816;-72
2024/03/21 10:08:08;;;;;;;;;40.25;31.25;;;;;-143.90;43.21;75267.31;4914853;28;102063;-73
2024/03/21 10:10:34;;;;;;;;;36.75;30.00;;;;;-143.90;42.74;75246.66;4904046;28;105083;-72
2024/03/21 10:13:00;;;;;;;;;46.25;35.25;;;;;-143.90;40.06;75275.59;4917496;28;104131;-72
2024/03/21 10:15:26;;;;;;;;;31.50;28.25;;;;;-143.90;39.40;75254.91;4925449;28;101732;-72
2024/03/21 10:17:52;;;;;;;;;36.75;29.25;;;;;-143.90;39.56;75240.44;4916656;28;103259;-71
2024/03/21 10:20:19;;;;;;;;;29.50;25.50;;;;;-143.90;39.38;75236.31;4899504;28;103015;-72
2024/03/21 10:22:45;;;;;;;;;41.75;34.25;;;;;-143.90;38.51;75234.25;4906823;28;104115;-72
2024/03/21 10:25:19;;;;;;;;;33.75;27.00;;;;;-143.90;38.16;75205.28;4924650;28;101454;-73
2024/03/21 10:27:47;;;;;;;;;26.25;22.25;;;;;-143.90;37.32;75201.16;4910368;28;102072;-72
2024/03/21 10:30:18;;;;;;;;;34.75;29.25;;;;;-143.90;36.45;75232.19;4896206;28;102505;-71
2024/03/21 10:32:45;;;;;;;;;28.00;25.75;;;;;-143.90;38.19;75211.50;4919213;28;108459;-73
2024/03/21 10:35:15;;;;;;;;;29.50;27.00;;;;;-143.90;37.88;75184.63;4913214;28;101479;-71
2024/03/21 10:37:42;;;;;;;;;40.50;29.00;;;;;-143.90;37.84;75168.09;4944476;28;101582;-72
2024/03/21 10:40:14;;;;;;;;;29.00;22.25;;;;;-143.90;37.45;75137.06;4929749;28;101644;-71
2024/03/21 10:43:00;;;;;;;;;24.50;22.00;;;;;-143.90;36.49;75104.00;4921171;28;106952;-71
2024/03/21 10:45:27;;;;;;;;;27.50;22.75;;;;;-143.90;36.34;75091.59;4907702;28;103297;-72
2024/03/21 10:47:53;;;;;;;;;34.50;28.75;;;;;-143.90;36.26;75118.47;4922052;28;101983;-73
2024/03/21 10:50:23;;;;;;;;;33.00;26.75;;;;;-143.90;35.67;75139.16;4921487;28;102672;-73
2024/03/21 10:52:50;;;;;;;;;41.00;34.25;;;;;-143.90;35.42;75143.28;4921892;28;104174;-70
2024/03/21 10:55:18;;;;;;;;;30.50;28.75;;;;;-143.90;34.03;75126.75;4903803;28;101939;-73